createdAt,value
2022-10-29T00:02:26.165Z,7.30
2022-10-29T00:04:54.365Z,7.00
2022-10-29T00:07:22.086Z,8.15
2022-10-29T00:09:49.801Z,10.40
2022-10-29T00:12:19.006Z,9.38
2022-10-29T00:14:46.779Z,9.20
2022-10-29T00:17:15.813Z,7.35
2022-10-29T00:19:43.593Z,9.67
2022-10-29T00:22:11.333Z,9.10
2022-10-29T00:24:39.103Z,6.57
2022-10-29T00:27:06.988Z,8.13
2022-10-29T00:29:36.135Z,7.55
2022-10-29T00:32:03.977Z,6.00
2022-10-29T00:34:31.757Z,7.78
2022-10-29T00:36:59.512Z,7.20
2022-10-29T00:39:29.381Z,8.68
2022-10-29T00:41:57.363Z,9.38
2022-10-29T00:44:35.223Z,7.55
2022-10-29T00:47:14.607Z,6.00
2022-10-29T00:49:44.419Z,7.38
2022-10-29T00:52:12.533Z,8.80
2022-10-29T00:54:43.780Z,8.53
2022-10-29T00:57:16.838Z,9.15
2022-10-29T00:59:45.915Z,9.07
2022-10-29T01:02:16.102Z,7.40
2022-10-29T01:04:44.634Z,8.75
2022-10-29T01:07:14.672Z,9.52
2022-10-29T01:09:43.147Z,6.40
2022-10-29T01:12:28.909Z,7.20
2022-10-29T01:15:06.253Z,7.75
2022-10-29T01:17:48.101Z,8.27
2022-10-29T01:20:42.232Z,6.45
2022-10-29T01:23:37.530Z,6.00
2022-10-29T01:26:25.498Z,7.85
2022-10-29T01:29:11.496Z,5.70
2022-10-29T01:31:47.151Z,6.97
2022-10-29T01:34:21.133Z,5.95
2022-10-29T01:36:57.979Z,7.22
2022-10-29T01:39:32.541Z,6.95
2022-10-29T01:42:06.963Z,6.22
2022-10-29T01:44:39.089Z,8.63
2022-10-29T01:47:14.905Z,8.73
2022-10-29T01:49:46.363Z,6.55
2022-10-29T01:52:16.100Z,7.82
2022-10-29T01:54:44.933Z,7.85
2022-10-29T01:57:31.787Z,8.02
2022-10-29T02:00:03.650Z,6.93
2022-10-29T02:02:48.411Z,8.43
2022-10-29T02:05:26.585Z,6.47
2022-10-29T02:08:00.340Z,6.95
2022-10-29T02:10:33.846Z,6.68
2022-10-29T02:13:01.739Z,6.32
2022-10-29T02:15:34.440Z,6.22
2022-10-29T02:18:05.562Z,6.13
2022-10-29T02:20:33.417Z,6.35
2022-10-29T02:23:01.424Z,8.35
2022-10-29T02:25:29.890Z,7.30
2022-10-29T02:27:58.100Z,6.90
2022-10-29T02:30:26.071Z,6.15
2022-10-29T02:32:54.221Z,7.20
2022-10-29T02:35:23.549Z,8.20
2022-10-29T02:37:51.373Z,9.82
2022-10-29T02:40:19.212Z,7.35
2022-10-29T02:42:46.950Z,6.15
2022-10-29T02:45:14.706Z,6.13
2022-10-29T02:47:42.497Z,6.38
2022-10-29T02:50:10.829Z,8.02
2022-10-29T02:52:40.716Z,8.20
2022-10-29T02:55:09.220Z,8.60
2022-10-29T02:57:36.962Z,7.15
2022-10-29T03:00:05.577Z,6.10
2022-10-29T03:02:33.413Z,5.40
2022-10-29T03:05:01.234Z,6.97
2022-10-29T03:07:29.029Z,5.78
2022-10-29T03:09:59.549Z,5.60
2022-10-29T03:12:27.326Z,8.18
2022-10-29T03:14:55.098Z,6.78
2022-10-29T03:17:22.929Z,6.63
2022-10-29T03:19:50.709Z,6.30
2022-10-29T03:22:18.642Z,6.47
2022-10-29T03:24:46.511Z,6.80
2022-10-29T03:27:15.632Z,6.22
2022-10-29T03:29:43.403Z,7.30
2022-10-29T03:32:11.185Z,8.00
2022-10-29T03:34:38.965Z,8.43
2022-10-29T03:37:06.694Z,7.70
2022-10-29T03:39:34.469Z,7.53
2022-10-29T03:42:03.898Z,7.97
2022-10-29T03:44:33.056Z,8.35
2022-10-29T03:47:00.849Z,7.80
2022-10-29T03:49:29.026Z,7.37
2022-10-29T03:51:56.785Z,6.47
2022-10-29T03:54:24.573Z,8.63
2022-10-29T03:56:52.341Z,8.65
2022-10-29T03:59:20.115Z,6.55
2022-10-29T04:01:49.411Z,6.47
2022-10-29T04:04:17.235Z,8.35
2022-10-29T04:06:44.995Z,9.48
2022-10-29T04:09:12.949Z,6.95
2022-10-29T04:11:40.714Z,6.83
2022-10-29T04:14:08.475Z,7.65
2022-10-29T04:16:36.545Z,8.87
2022-10-29T04:19:05.665Z,6.13
2022-10-29T04:28:17.996Z,7.33
2022-10-29T04:29:57.050Z,6.93
2022-10-29T04:32:24.866Z,6.72
2022-10-29T04:34:54.001Z,6.60
2022-10-29T04:37:21.772Z,7.00
2022-10-29T04:39:49.537Z,9.95
2022-10-29T04:42:17.329Z,7.85
2022-10-29T04:44:45.146Z,6.40
2022-10-29T04:47:12.909Z,7.60
2022-10-29T04:49:40.757Z,8.43
2022-10-29T04:52:10.001Z,10.18
2022-10-29T04:54:37.751Z,9.97
2022-10-29T04:57:05.605Z,8.90
2022-10-29T04:59:33.381Z,8.98
2022-10-29T05:02:01.121Z,8.82
2022-10-29T05:04:29.444Z,5.37
2022-10-29T05:06:57.228Z,8.60
2022-10-29T05:09:26.368Z,9.45
2022-10-29T05:11:54.137Z,9.27
2022-10-29T05:14:22.061Z,9.30
2022-10-29T05:16:49.836Z,8.85
2022-10-29T05:19:17.618Z,9.63
2022-10-29T05:21:45.960Z,6.57
2022-10-29T05:24:13.675Z,6.68
2022-10-29T05:26:43.801Z,6.43
2022-10-29T05:29:11.593Z,8.35
2022-10-29T05:31:39.360Z,6.53
2022-10-29T05:34:07.090Z,9.00
2022-10-29T05:36:34.877Z,12.68
2022-10-29T05:39:02.637Z,7.65
2022-10-29T05:41:30.373Z,8.98
2022-10-29T05:43:59.690Z,7.13
2022-10-29T05:46:27.454Z,7.28
2022-10-29T05:48:55.259Z,9.82
2022-10-29T05:51:23.099Z,8.05
2022-10-29T05:53:51.297Z,8.07
2022-10-29T05:56:19.077Z,8.55
2022-10-29T05:58:49.373Z,9.00
2022-10-29T06:01:19.647Z,11.48
2022-10-29T06:03:47.519Z,8.93
2022-10-29T06:06:15.404Z,8.98
2022-10-29T06:08:43.280Z,5.88
2022-10-29T06:11:11.093Z,8.45
2022-10-29T06:13:38.860Z,8.18
2022-10-29T06:16:07.505Z,6.45
2022-10-29T06:18:36.670Z,7.00
2022-10-29T06:21:04.900Z,7.38
2022-10-29T06:23:32.811Z,8.57
2022-10-29T06:26:01.620Z,7.68
2022-10-29T06:28:33.675Z,6.78
2022-10-29T06:31:02.823Z,7.30
2022-10-29T06:33:30.661Z,7.60
2022-10-29T06:36:01.252Z,6.73
2022-10-29T06:38:29.146Z,8.02
2022-10-29T06:40:56.978Z,10.43
2022-10-29T06:43:24.758Z,8.33
2022-10-29T06:45:52.533Z,8.27
2022-10-29T06:48:22.524Z,6.37
2022-10-29T06:50:50.798Z,13.25
2022-10-29T06:53:20.300Z,9.60
2022-10-29T06:55:48.091Z,11.20
2022-10-29T06:58:17.465Z,10.82
2022-10-29T07:00:46.291Z,11.83
2022-10-29T07:03:14.821Z,8.02
2022-10-29T07:05:42.745Z,9.32
2022-10-29T07:08:10.961Z,9.55
2022-10-29T07:10:40.576Z,10.05
2022-10-29T07:13:08.359Z,13.37
2022-10-29T07:15:36.132Z,12.40
2022-10-29T07:18:06.709Z,10.13
2022-10-29T07:20:36.579Z,9.52
2022-10-29T07:23:04.408Z,9.90
2022-10-29T07:25:33.124Z,9.15
2022-10-29T07:28:05.994Z,10.52
2022-10-29T07:30:34.323Z,11.05
2022-10-29T07:33:02.067Z,10.98
2022-10-29T07:35:30.645Z,8.83
2022-10-29T07:38:05.298Z,11.07
2022-10-29T07:40:39.213Z,8.98
2022-10-29T07:43:08.321Z,9.40
2022-10-29T07:45:36.065Z,10.05
2022-10-29T07:48:07.437Z,6.65
2022-10-29T07:50:35.502Z,11.13
2022-10-29T07:53:03.654Z,8.50
2022-10-29T07:55:31.818Z,7.97
2022-10-29T07:58:02.174Z,9.10
2022-10-29T08:00:33.490Z,11.88
2022-10-29T08:03:01.282Z,10.68
2022-10-29T08:05:31.093Z,10.13
2022-10-29T08:07:59.925Z,35.28
2022-10-29T08:10:28.591Z,20.25
2022-10-29T08:12:58.461Z,18.63
2022-10-29T08:15:27.892Z,11.25
2022-10-29T08:17:57.675Z,10.68
2022-10-29T08:20:27.269Z,12.63
2022-10-29T08:22:55.582Z,11.07
2022-10-29T08:25:23.792Z,11.43
2022-10-29T08:28:00.240Z,8.32
2022-10-29T08:30:28.443Z,10.75
2022-10-29T08:32:58.082Z,11.27
2022-10-29T08:35:26.146Z,9.05
2022-10-29T08:37:53.935Z,12.73
2022-10-29T08:40:30.646Z,9.57
2022-10-29T08:43:25.909Z,11.52
2022-10-29T08:45:55.672Z,11.18
2022-10-29T08:48:35.522Z,9.73
2022-10-29T08:51:10.667Z,8.60
2022-10-29T08:53:41.701Z,10.52
2022-10-29T08:56:16.301Z,10.98
2022-10-29T08:58:53.008Z,11.90
2022-10-29T09:01:24.228Z,14.43
2022-10-29T09:03:53.773Z,12.93
2022-10-29T09:06:27.884Z,11.85
2022-10-29T09:09:09.781Z,11.17
2022-10-29T09:11:53.534Z,10.57
2022-10-29T09:14:43.282Z,9.98
2022-10-29T09:17:21.107Z,11.50
2022-10-29T09:20:04.805Z,10.52
2022-10-29T09:22:40.514Z,11.70
2022-10-29T09:25:19.467Z,7.95
2022-10-29T09:28:01.761Z,11.13
2022-10-29T09:30:32.055Z,10.88
2022-10-29T09:33:04.899Z,9.27
2022-10-29T09:35:39.742Z,10.45
2022-10-29T09:38:15.985Z,9.68
2022-10-29T09:40:44.436Z,9.73
2022-10-29T09:43:25.437Z,9.48
2022-10-29T09:46:01.491Z,11.48
2022-10-29T09:48:35.965Z,10.93
2022-10-29T09:51:20.047Z,8.18
2022-10-29T09:53:47.861Z,12.05
2022-10-29T09:56:15.676Z,12.90
2022-10-29T09:58:47.329Z,8.37
2022-10-29T10:01:15.296Z,11.15
2022-10-29T10:03:46.451Z,9.27
2022-10-29T10:06:17.758Z,10.57
2022-10-29T10:09:01.916Z,11.33
2022-10-29T10:11:37.796Z,10.10
2022-10-29T10:14:14.269Z,7.23
2022-10-29T10:16:42.702Z,13.07
2022-10-29T10:19:23.743Z,9.18
2022-10-29T10:22:00.168Z,9.95
2022-10-29T10:24:31.535Z,11.88
2022-10-29T10:26:59.511Z,12.45
2022-10-29T10:29:28.395Z,13.00
2022-10-29T10:32:13.162Z,13.82
2022-10-29T10:34:40.971Z,15.00
2022-10-29T10:37:18.289Z,9.90
2022-10-29T10:39:48.628Z,11.55
2022-10-29T10:42:19.244Z,11.30
2022-10-29T10:44:53.380Z,9.87
2022-10-29T10:47:25.180Z,11.00
2022-10-29T10:49:52.993Z,7.97
2022-10-29T10:52:27.350Z,10.48
2022-10-29T10:55:01.080Z,10.90
2022-10-29T10:57:33.395Z,12.20
2022-10-29T11:00:06.354Z,10.80
2022-10-29T11:02:48.938Z,11.13
2022-10-29T11:05:19.654Z,9.77
2022-10-29T11:07:56.192Z,13.32
2022-10-29T11:10:31.805Z,10.68
2022-10-29T11:13:02.574Z,10.95
2022-10-29T11:15:38.724Z,11.48
2022-10-29T11:20:50.499Z,9.93
2022-10-29T11:23:35.300Z,12.17
2022-10-29T11:26:09.538Z,11.35
2022-10-29T11:28:41.797Z,9.93
2022-10-29T11:31:18.776Z,10.00
2022-10-29T11:33:58.050Z,10.13
2022-10-29T11:36:30.928Z,10.98
2022-10-29T11:39:08.452Z,8.87
2022-10-29T11:41:45.313Z,12.70
2022-10-29T11:44:14.229Z,11.93
2022-10-29T11:46:53.659Z,11.57
2022-10-29T11:49:34.021Z,12.18
2022-10-29T11:52:09.696Z,10.65
2022-10-29T11:54:53.475Z,13.77
2022-10-29T11:57:27.702Z,12.38
2022-10-29T12:00:13.368Z,12.65
2022-10-29T12:02:54.163Z,8.18
2022-10-29T12:05:29.101Z,9.47
2022-10-29T12:08:19.563Z,11.82
2022-10-29T12:10:54.536Z,14.07
2022-10-29T12:13:39.476Z,13.75
2022-10-29T12:16:28.584Z,13.00
2022-10-29T12:19:04.103Z,11.18
2022-10-29T12:21:43.782Z,10.63
2022-10-29T12:24:26.115Z,12.38
2022-10-29T12:27:02.420Z,8.85
2022-10-29T12:29:44.081Z,12.65
2022-10-29T12:32:16.659Z,10.07
2022-10-29T12:34:48.902Z,10.90
2022-10-29T12:37:24.245Z,22.20
2022-10-29T12:39:57.150Z,12.83
2022-10-29T12:42:28.105Z,9.13
2022-10-29T12:45:07.204Z,10.15
2022-10-29T12:47:41.178Z,10.10
2022-10-29T12:50:24.738Z,11.07
2022-10-29T12:53:05.292Z,9.68
2022-10-29T12:55:34.505Z,13.77
2022-10-29T12:58:42.535Z,9.38
2022-10-29T13:02:09.960Z,14.17
2022-10-29T13:04:33.973Z,12.48
2022-10-29T13:07:24.084Z,10.27
2022-10-29T13:10:31.099Z,13.90
2022-10-29T13:13:06.234Z,11.48
2022-10-29T13:15:38.375Z,17.27
2022-10-29T13:18:19.910Z,13.10
2022-10-29T13:20:49.666Z,10.40
2022-10-29T13:23:35.052Z,11.15
2022-10-29T13:26:04.212Z,10.27
2022-10-29T13:28:52.052Z,10.13
2022-10-29T13:31:48.784Z,14.43
2022-10-29T13:34:54.513Z,10.80
2022-10-29T13:38:02.682Z,10.10
2022-10-29T13:41:10.431Z,10.05
2022-10-29T13:43:38.596Z,12.68
2022-10-29T13:46:30.996Z,13.43
2022-10-29T13:49:01.932Z,12.45
2022-10-29T13:51:38.358Z,12.25
2022-10-29T13:54:11.144Z,12.98
2022-10-29T13:56:46.585Z,14.02
2022-10-29T13:59:21.007Z,13.23
2022-10-29T14:02:17.215Z,12.50
2022-10-29T14:04:50.192Z,10.75
2022-10-29T14:07:22.021Z,18.38
2022-10-29T14:09:52.938Z,11.00
2022-10-29T14:12:25.903Z,11.02
2022-10-29T14:15:01.151Z,12.43
2022-10-29T14:17:30.407Z,14.02
2022-10-29T14:19:58.190Z,13.65
2022-10-29T14:22:37.439Z,14.02
2022-10-29T14:25:27.110Z,11.65
2022-10-29T14:28:20.156Z,10.65
2022-10-29T14:30:49.619Z,13.88
2022-10-29T14:33:25.384Z,10.02
2022-10-29T14:35:56.136Z,15.18
2022-10-29T14:38:31.074Z,12.93
2022-10-29T14:40:58.852Z,15.00
2022-10-29T14:43:28.829Z,10.65
2022-10-29T14:46:09.645Z,12.00
2022-10-29T14:48:39.951Z,11.07
2022-10-29T14:51:07.784Z,10.98
2022-10-29T14:53:38.634Z,12.45
2022-10-29T14:56:12.138Z,11.27
2022-10-29T14:58:42.145Z,10.93
2022-10-29T15:01:15.333Z,12.13
2022-10-29T15:03:44.625Z,14.90
2022-10-29T15:06:15.460Z,14.27
2022-10-29T15:08:44.813Z,12.90
2022-10-29T15:11:35.679Z,10.70
2022-10-29T15:14:05.032Z,10.68
2022-10-29T15:16:38.099Z,13.90
2022-10-29T15:19:15.612Z,11.88
2022-10-29T15:21:43.917Z,12.95
2022-10-29T15:24:20.401Z,14.00
2022-10-29T15:26:51.659Z,10.82
2022-10-29T15:29:29.115Z,12.77
2022-10-29T15:32:00.471Z,14.32
2022-10-29T15:34:33.464Z,15.48
2022-10-29T15:37:16.192Z,27.50
2022-10-29T15:40:06.698Z,24.45
2022-10-29T15:42:36.551Z,24.50
2022-10-29T15:45:14.985Z,23.55
2022-10-29T15:47:44.323Z,21.10
2022-10-29T15:50:15.215Z,42.83
2022-10-29T15:52:45.466Z,38.45
2022-10-29T15:55:20.868Z,13.52
2022-10-29T15:57:52.617Z,14.90
2022-10-29T16:00:22.202Z,11.52
2022-10-29T16:02:50.515Z,11.77
2022-10-29T16:05:19.844Z,11.93
2022-10-29T16:07:49.084Z,11.33
2022-10-29T16:10:19.630Z,11.00
2022-10-29T16:12:48.390Z,12.13
2022-10-29T16:15:19.062Z,11.52
2022-10-29T16:17:47.901Z,13.68
2022-10-29T16:20:17.349Z,13.20
2022-10-29T16:22:47.677Z,12.73
2022-10-29T16:25:25.062Z,12.17
2022-10-29T16:27:53.148Z,10.95
2022-10-29T16:30:21.540Z,12.55
2022-10-29T16:32:50.855Z,11.33
2022-10-29T16:35:21.572Z,12.30
2022-10-29T16:37:52.166Z,22.75
2022-10-29T16:40:21.582Z,17.38
2022-10-29T16:42:49.779Z,11.68
2022-10-29T16:45:19.568Z,15.32
2022-10-29T16:47:47.381Z,9.32
2022-10-29T16:50:17.357Z,15.60
2022-10-29T16:52:45.347Z,11.20
2022-10-29T16:55:14.863Z,14.23
2022-10-29T16:57:42.687Z,12.75
2022-10-29T17:00:12.063Z,14.43
2022-10-29T17:02:40.532Z,12.95
2022-10-29T17:05:08.908Z,12.77
2022-10-29T17:07:36.693Z,11.27
2022-10-29T17:10:05.064Z,11.68
2022-10-29T17:12:35.083Z,11.52
2022-10-29T17:15:03.056Z,10.80
2022-10-29T17:17:31.110Z,16.88
2022-10-29T17:19:59.097Z,18.65
2022-10-29T17:22:26.928Z,15.05
2022-10-29T17:24:54.666Z,16.27
2022-10-29T17:27:22.460Z,17.48
2022-10-29T17:29:51.592Z,15.10
2022-10-29T17:32:19.401Z,13.88
2022-10-29T17:34:47.190Z,11.43
2022-10-29T17:37:15.030Z,11.52
2022-10-29T17:39:43.055Z,14.75
2022-10-29T17:42:10.829Z,16.77
2022-10-29T17:44:38.650Z,13.85
2022-10-29T17:47:07.803Z,11.50
2022-10-29T17:49:35.580Z,10.00
2022-10-29T17:52:03.489Z,12.20
2022-10-29T17:54:32.320Z,11.88
2022-10-29T17:57:01.718Z,11.25
2022-10-29T17:59:29.493Z,13.30
2022-10-29T18:01:57.348Z,10.85
2022-10-29T18:04:26.796Z,10.63
2022-10-29T18:06:56.761Z,13.45
2022-10-29T18:09:24.551Z,14.48
2022-10-29T18:11:52.310Z,11.27
2022-10-29T18:14:20.148Z,12.13
2022-10-29T18:16:47.910Z,13.80
2022-10-29T18:19:15.668Z,12.60
2022-10-29T18:21:44.837Z,9.43
2022-10-29T18:24:12.639Z,12.60
2022-10-29T18:26:40.395Z,11.97
2022-10-29T18:29:09.963Z,16.00
2022-10-29T18:31:40.105Z,14.30
2022-10-29T18:34:08.993Z,10.07
2022-10-29T18:36:36.988Z,12.18
2022-10-29T18:39:07.073Z,12.73
2022-10-29T18:41:35.445Z,14.25
2022-10-29T18:44:03.419Z,12.02
2022-10-29T18:46:31.197Z,10.63
2022-10-29T18:49:00.415Z,12.27
2022-10-29T18:51:29.694Z,11.85
2022-10-29T18:53:58.921Z,11.77
2022-10-29T18:56:30.246Z,12.23
2022-10-29T18:58:59.299Z,14.10
2022-10-29T19:01:30.241Z,15.43
2022-10-29T19:03:59.701Z,13.43
2022-10-29T19:06:29.403Z,11.80
2022-10-29T19:08:57.976Z,12.50
2022-10-29T19:11:28.112Z,14.93
2022-10-29T19:13:57.246Z,14.90
2022-10-29T19:16:25.842Z,10.90
2022-10-29T19:18:55.852Z,12.53
2022-10-29T19:21:24.423Z,12.45
2022-10-29T19:23:56.045Z,12.73
2022-10-29T19:26:25.652Z,11.38
2022-10-29T19:28:55.340Z,11.68
2022-10-29T19:31:24.522Z,12.10
2022-10-29T19:33:55.396Z,10.38
2022-10-29T19:36:24.221Z,10.40
2022-10-29T19:38:52.025Z,12.57
2022-10-29T19:41:20.067Z,12.40
2022-10-29T19:43:48.099Z,10.52
2022-10-29T19:46:18.901Z,15.25
2022-10-29T19:48:50.163Z,10.60
2022-10-29T19:51:18.614Z,13.82
2022-10-29T19:53:46.712Z,10.63
2022-10-29T19:56:15.892Z,12.15
2022-10-29T19:58:44.761Z,12.90
2022-10-29T20:01:14.660Z,13.55
2022-10-29T20:03:44.290Z,12.70
2022-10-29T20:06:12.414Z,11.80
2022-10-29T20:08:40.425Z,13.10
2022-10-29T20:11:08.447Z,13.43
2022-10-29T20:13:37.051Z,14.73
2022-10-29T20:16:09.002Z,13.32
2022-10-29T20:18:38.124Z,16.30
2022-10-29T20:21:07.992Z,15.50
2022-10-29T20:23:36.341Z,13.60
2022-10-29T20:26:04.407Z,11.77
2022-10-29T20:28:32.188Z,13.18
2022-10-29T20:31:29.706Z,14.87
2022-10-29T20:34:00.134Z,12.95
2022-10-29T20:36:31.348Z,21.55
2022-10-29T20:38:59.832Z,18.97
2022-10-29T20:41:28.386Z,16.75
2022-10-29T20:43:57.867Z,14.65
2022-10-29T20:46:29.946Z,16.10
2022-10-29T20:48:57.828Z,13.50
2022-10-29T20:51:25.912Z,14.93
2022-10-29T20:53:55.908Z,11.55
2022-10-29T20:56:25.205Z,11.02
2022-10-29T20:58:52.972Z,13.83
2022-10-29T21:01:24.105Z,14.40
2022-10-29T21:03:52.382Z,15.45
2022-10-29T21:06:20.354Z,13.85
2022-10-29T21:08:49.062Z,13.70
2022-10-29T21:11:19.831Z,11.27
2022-10-29T21:13:47.846Z,11.30
2022-10-29T21:16:18.193Z,10.53
2022-10-29T21:18:47.981Z,9.85
2022-10-29T21:21:16.211Z,13.32
2022-10-29T21:23:44.673Z,14.23
2022-10-29T21:26:14.348Z,14.63
2022-10-29T21:28:43.459Z,11.98
2022-10-29T21:31:11.771Z,13.97
2022-10-29T21:33:39.862Z,13.57
2022-10-29T21:36:07.941Z,13.05
2022-10-29T21:38:35.697Z,13.52
2022-10-29T21:41:03.484Z,13.07
2022-10-29T21:43:31.262Z,13.37
2022-10-29T21:46:00.593Z,14.53
2022-10-29T21:48:29.210Z,12.25
2022-10-29T21:51:01.853Z,12.52
2022-10-29T21:53:30.365Z,12.85
2022-10-29T21:55:58.554Z,12.27
2022-10-29T21:58:26.832Z,11.98
2022-10-29T22:01:04.830Z,11.25
2022-10-29T22:03:33.649Z,13.10
2022-10-29T22:06:05.890Z,12.68
2022-10-29T22:08:33.967Z,14.77
2022-10-29T22:11:02.289Z,13.10
2022-10-29T22:13:30.980Z,8.60
2022-10-29T22:15:58.929Z,10.52
2022-10-29T22:18:28.741Z,13.10
2022-10-29T22:21:08.397Z,10.43
2022-10-29T22:23:38.128Z,12.10
2022-10-29T22:26:05.986Z,11.02
2022-10-29T22:28:33.825Z,11.38
2022-10-29T22:31:03.265Z,13.43
2022-10-29T22:33:32.715Z,9.13
2022-10-29T22:36:09.212Z,14.60
2022-10-29T22:38:37.483Z,10.40
2022-10-29T22:41:06.591Z,12.97
2022-10-29T22:43:34.476Z,9.05
2022-10-29T22:46:02.361Z,13.35
2022-10-29T22:48:30.426Z,10.02
2022-10-29T22:51:04.853Z,10.85
2022-10-29T22:53:33.155Z,9.38
2022-10-29T22:56:01.940Z,13.47
2022-10-29T22:58:30.081Z,11.03
2022-10-29T23:01:05.799Z,13.10
2022-10-29T23:03:34.283Z,11.57
2022-10-29T23:06:05.384Z,14.13
2022-10-29T23:08:33.511Z,11.02
2022-10-29T23:11:05.081Z,13.10
2022-10-29T23:13:32.959Z,13.63
2022-10-29T23:16:00.768Z,10.27
2022-10-29T23:18:28.557Z,13.98
2022-10-29T23:21:01.166Z,13.13
2022-10-29T23:23:31.186Z,12.85
2022-10-29T23:26:02.141Z,12.02
2022-10-29T23:28:31.237Z,13.00
2022-10-29T23:31:00.868Z,10.13
2022-10-29T23:33:28.995Z,12.60
2022-10-29T23:35:57.078Z,12.07
2022-10-29T23:38:24.815Z,11.90
2022-10-29T23:40:53.949Z,13.97
2022-10-29T23:43:21.716Z,10.65
2022-10-29T23:45:49.496Z,11.63
2022-10-29T23:48:17.595Z,11.85
2022-10-29T23:50:45.789Z,11.32
2022-10-29T23:53:13.887Z,12.15
2022-10-29T23:55:43.326Z,12.38
2022-10-29T23:58:14.736Z,12.10
